Date,TemperatureHighF,TemperatureAvgF,TemperatureLowF,DewpointHighF,DewpointAvgF,DewpointLowF,HumidityHigh,HumidityAvg,HumidityLow,PressureMaxIn,PressureMinIn,WindSpeedMaxMPH,WindSpeedAvgMPH,GustSpeedMaxMPH,PrecipitationSumIn
2013-2-1,30,27,22,20,12,7,75,53,40,30.24,29.78,26,5,27,0.00
2013-2-2,29,24,17,23,12,7,91,63,43,30.28,30.00,19,2,21,0.00
2013-2-3,30,26,21,26,22,19,94,85,72,29.99,29.77,17,0,17,0.04
2013-2-4,30,26,21,22,15,12,82,63,50,29.99,29.82,22,5,23,0.00
2013-2-5,32,30,27,30,27,22,93,87,82,29.92,29.84,1,0,1,0.00
2013-2-6,39,32,24,30,25,17,100,76,56,30.31,29.88,17,2,19,0.01
2013-2-7,35,28,19,23,19,16,94,69,53,30.45,30.24,9,0,10,0.00
2013-2-8,36,34,31,34,31,24,100,90,73,30.24,29.64,17,3,19,0.20
2013-2-9,33,28,21,32,19,11,96,71,50,30.34,29.73,28,7,28,0.08
2013-2-10,39,28,16,23,16,10,81,61,40,30.45,30.26,8,0,10,0.02
2013-2-11,48,39,31,47,37,23,97,91,70,30.27,29.62,18,1,20,0.31
2013-2-12,45,40,30,40,28,24,92,63,52,29.94,29.72,26,5,30,0.00
2013-2-13,44,34,23,32,28,20,94,78,58,29.92,29.63,7,0,7,0.00
2013-2-14,46,37,29,34,31,27,96,80,57,29.97,29.68,11,0,11,0.18
2013-2-15,56,43,30,38,33,26,93,71,47,29.98,29.87,15,1,16,0.04
2013-2-16,37,35,32,34,30,20,95,82,60,29.94,29.78,13,1,17,0.04
2013-2-17,31,27,21,15,10,4,54,47,40,30.03,29.69,33,9,33,0.00
2013-2-18,35,27,19,16,11,5,61,51,40,30.27,30.03,24,5,25,0.00
2013-2-19,45,36,24,42,30,16,94,79,56,30.15,29.66,22,2,22,0.30
2013-2-20,36,30,25,27,17,12,71,58,49,30.00,29.73,27,9,29,0.00
2013-2-21,35,29,24,19,16,13,69,60,50,30.27,29.99,24,6,25,0.00
2013-2-22,38,31,23,30,23,16,85,73,63,30.36,30.20,11,0,14,0.00
2013-2-23,45,39,33,44,37,30,96,95,85,30.22,29.76,12,1,12,0.14
2013-2-24,46,38,32,40,32,23,96,79,59,29.98,29.73,24,3,24,0.01
2013-2-25,45,36,28,32,26,22,86,69,53,30.19,29.98,17,1,17,0.00
2013-2-26,45,35,24,36,30,22,94,83,63,30.21,29.76,17,1,21,0.36
2013-2-27,51,44,38,46,40,36,96,87,72,29.76,29.46,24,3,28,0.23
2013-2-28,46,42,36,37,34,28,85,73,53,29.61,29.52,16,2,17,0.00